createdAt,value
2022-11-14T00:01:09.860Z,101638.91
2022-11-14T00:06:19.025Z,101638.03
2022-11-14T00:11:30.661Z,101632.88
2022-11-14T00:16:38.736Z,101637.91
2022-11-14T00:21:46.678Z,101632.78
2022-11-14T00:26:58.341Z,101631.97
2022-11-14T00:32:06.557Z,101629.31
2022-11-14T00:37:15.292Z,101619.91
2022-11-14T00:42:26.584Z,101616.50
2022-11-14T00:47:35.045Z,101584.44
2022-11-14T00:52:43.164Z,101608.00
2022-11-14T00:57:53.711Z,101603.69
2022-11-14T01:03:02.141Z,101598.56
2022-11-14T01:08:10.542Z,101592.38
2022-11-14T01:13:22.148Z,101585.38
2022-11-14T01:18:30.625Z,101574.94
2022-11-14T01:23:39.690Z,101567.13
2022-11-14T01:28:50.488Z,101566.22
2022-11-14T01:33:59.460Z,101559.13
2022-11-14T01:39:08.127Z,101551.09
2022-11-14T01:44:21.818Z,101542.44
2022-11-14T01:49:41.781Z,101538.91
2022-11-14T01:54:53.183Z,101535.56
2022-11-14T02:00:08.431Z,101512.34
2022-11-14T02:05:19.265Z,101515.09
2022-11-14T02:10:27.713Z,101515.84
2022-11-14T02:15:39.068Z,101505.53
2022-11-14T02:20:49.880Z,101507.22
2022-11-14T02:25:58.370Z,101499.44
2022-11-14T02:31:06.633Z,101504.44
2022-11-14T02:36:17.740Z,101490.66
2022-11-14T02:41:26.232Z,101493.09
2022-11-14T02:46:34.608Z,101478.38
2022-11-14T02:51:45.943Z,101475.72
2022-11-14T02:56:54.169Z,101467.03
2022-11-14T03:02:02.164Z,101471.97
2022-11-14T03:07:13.220Z,101465.91
2022-11-14T03:12:21.510Z,101456.16
2022-11-14T03:17:29.607Z,101452.56
2022-11-14T03:22:40.156Z,101439.59
2022-11-14T03:27:48.875Z,101433.38
2022-11-14T03:32:59.344Z,101434.13
2022-11-14T03:38:10.126Z,101435.72
2022-11-14T03:43:18.549Z,101436.41
2022-11-14T03:48:30.635Z,101433.69
2022-11-14T03:53:41.426Z,101429.19
2022-11-14T03:58:49.635Z,101434.22
2022-11-14T04:03:57.887Z,101434.09
2022-11-14T04:09:09.338Z,101426.22
2022-11-14T04:14:19.260Z,101426.09
2022-11-14T04:19:28.222Z,101396.22
2022-11-14T04:24:43.851Z,101419.63
2022-11-14T04:29:52.620Z,101416.97
2022-11-14T04:35:04.784Z,101403.94
2022-11-14T04:40:19.948Z,101397.78
2022-11-14T04:45:30.492Z,101389.13
2022-11-14T04:50:38.844Z,101376.09
2022-11-14T04:55:49.786Z,101368.19
2022-11-14T05:00:58.427Z,101371.44
2022-11-14T05:06:06.882Z,101374.69
2022-11-14T05:11:21.486Z,101377.13
2022-11-14T05:16:32.004Z,101361.59
2022-11-14T05:21:40.226Z,101352.06
2022-11-14T05:26:51.647Z,101336.88
2022-11-14T05:32:00.994Z,101350.78
2022-11-14T05:37:10.749Z,101345.47
2022-11-14T05:42:22.046Z,101342.72
2022-11-14T05:47:30.416Z,101345.16
2022-11-14T05:52:39.974Z,101345.66
2022-11-14T05:57:52.011Z,101356.75
2022-11-14T06:03:01.571Z,101360.28
2022-11-14T06:08:10.258Z,101343.72
2022-11-14T06:13:20.972Z,101340.31
2022-11-14T06:18:38.930Z,101341.06
2022-11-14T06:23:48.023Z,101343.38
2022-11-14T06:29:00.149Z,101353.41
2022-11-14T06:34:08.938Z,101354.00
2022-11-14T06:39:17.822Z,101359.00
2022-11-14T06:44:31.031Z,101355.34
2022-11-14T06:49:40.839Z,101359.63
2022-11-14T06:54:49.770Z,101366.16
2022-11-14T07:00:01.600Z,101366.84
2022-11-14T07:05:18.564Z,101362.53
2022-11-14T07:10:26.861Z,101355.53
2022-11-14T07:15:37.896Z,101351.25
2022-11-14T07:20:45.959Z,101353.00
2022-11-14T07:25:54.521Z,101352.13
2022-11-14T07:31:12.533Z,101347.00
2022-11-14T07:36:22.164Z,101339.28
2022-11-14T07:41:30.482Z,101331.56
2022-11-14T07:46:43.028Z,101334.19
2022-11-14T07:51:52.058Z,101327.44
2022-11-14T07:57:00.471Z,101329.06
2022-11-14T08:02:15.037Z,101324.59
2022-11-14T08:07:23.788Z,101325.97
2022-11-14T08:12:35.349Z,101319.19
2022-11-14T08:17:46.691Z,101330.03
2022-11-14T08:22:55.824Z,101326.41
2022-11-14T08:28:04.507Z,101333.25
2022-11-14T08:33:15.615Z,101332.56
2022-11-14T08:38:24.242Z,101302.47
2022-11-14T08:43:33.446Z,101306.38
2022-11-14T08:48:44.288Z,101299.72
2022-11-14T08:53:52.707Z,101279.28
2022-11-14T08:59:01.364Z,101283.22
2022-11-14T09:04:12.597Z,101274.16
2022-11-14T09:09:21.606Z,101270.22
2022-11-14T09:14:30.361Z,101266.25
2022-11-14T09:19:41.859Z,101254.31
2022-11-14T09:24:52.182Z,101255.66
2022-11-14T09:30:00.860Z,101269.38
2022-11-14T09:35:15.415Z,101273.47
2022-11-14T09:40:24.204Z,101268.25
2022-11-14T09:45:33.291Z,101269.06
2022-11-14T09:50:49.230Z,101257.72
2022-11-14T09:55:57.695Z,101252.72
2022-11-14T10:01:10.582Z,101253.47
2022-11-14T10:06:26.313Z,101241.28
2022-11-14T10:11:37.698Z,101248.44
2022-11-14T10:16:49.579Z,101244.94
2022-11-14T10:22:13.375Z,101263.84
2022-11-14T10:27:22.948Z,101250.00
2022-11-14T10:32:42.994Z,101238.66
2022-11-14T10:38:02.805Z,101223.13
2022-11-14T10:43:19.536Z,101222.25
2022-11-14T10:48:34.296Z,101225.72
2022-11-14T10:53:53.491Z,101217.97
2022-11-14T10:59:02.004Z,101221.25
2022-11-14T11:04:23.250Z,101216.97
2022-11-14T11:09:46.519Z,101205.78
2022-11-14T11:15:11.009Z,101186.91
2022-11-14T11:20:27.278Z,101189.56
2022-11-14T11:25:37.748Z,101191.34
2022-11-14T11:30:57.993Z,101183.53
2022-11-14T11:36:08.441Z,101182.72
2022-11-14T11:46:56.713Z,101199.94
2022-11-14T11:52:07.599Z,101182.78
2022-11-14T11:57:22.569Z,101174.28
2022-11-14T12:02:31.595Z,101165.72
2022-11-14T12:07:43.015Z,101158.94
2022-11-14T12:13:05.937Z,101153.84
2022-11-14T12:18:21.023Z,101143.53
2022-11-14T12:23:49.240Z,101152.22
2022-11-14T12:29:08.758Z,101144.50
2022-11-14T12:34:29.609Z,101138.50
2022-11-14T12:39:38.134Z,101137.69
2022-11-14T12:44:49.009Z,101134.25
2022-11-14T12:50:01.672Z,101125.66
2022-11-14T12:55:35.516Z,101114.50
2022-11-14T13:01:02.875Z,101106.78
2022-11-14T13:06:15.462Z,101109.34
2022-11-14T13:11:49.976Z,101106.75
2022-11-14T13:17:26.083Z,101107.63
2022-11-14T13:22:58.682Z,101097.25
2022-11-14T13:28:24.882Z,101093.81
2022-11-14T13:33:52.726Z,101096.41
2022-11-14T13:39:23.627Z,101089.47
2022-11-14T13:44:47.034Z,101088.56
2022-11-14T13:50:14.410Z,101073.94
2022-11-14T13:55:31.032Z,101062.72
2022-11-14T14:00:54.075Z,101048.06
2022-11-14T14:06:15.397Z,101044.66
2022-11-14T14:11:42.858Z,101018.09
2022-11-14T14:17:03.255Z,101032.88
2022-11-14T14:22:18.660Z,101032.91
2022-11-14T14:27:41.714Z,101026.75
2022-11-14T14:33:06.715Z,101030.97
2022-11-14T14:38:15.204Z,101028.31
2022-11-14T14:43:33.253Z,101034.31
2022-11-14T14:48:46.111Z,101016.19
2022-11-14T14:53:56.135Z,101022.19
2022-11-14T14:59:20.890Z,101021.25
2022-11-14T15:04:32.755Z,101029.81
2022-11-14T15:09:41.368Z,101020.25
2022-11-14T15:14:50.926Z,101021.88
2022-11-14T15:20:02.167Z,101014.03
2022-11-14T15:25:21.270Z,101011.28
2022-11-14T15:30:31.211Z,101014.56
2022-11-14T15:35:42.537Z,101014.41
2022-11-14T15:41:05.313Z,101018.59
2022-11-14T15:46:29.353Z,101021.88
2022-11-14T15:51:48.203Z,101012.22
2022-11-14T15:56:58.336Z,101006.06
2022-11-14T16:02:14.297Z,101001.59
2022-11-14T16:07:28.811Z,101011.75
2022-11-14T16:12:39.782Z,101015.81
2022-11-14T16:17:50.406Z,101013.03
2022-11-14T16:23:02.814Z,101015.28
2022-11-14T16:28:16.243Z,101017.66
2022-11-14T16:33:29.017Z,101004.59
2022-11-14T16:38:43.426Z,101000.97
2022-11-14T16:43:55.857Z,100987.94
2022-11-14T16:49:06.870Z,100994.59
2022-11-14T16:54:25.121Z,100992.72
2022-11-14T16:59:34.497Z,101002.81
2022-11-14T17:04:45.386Z,101007.88
2022-11-14T17:10:00.020Z,101025.72
2022-11-14T17:15:17.914Z,101027.22
2022-11-14T17:20:28.828Z,101022.72
2022-11-14T17:25:40.554Z,101019.13
2022-11-14T17:30:50.398Z,101022.31
2022-11-14T17:36:02.094Z,101017.00
2022-11-14T17:41:15.856Z,101013.34
2022-11-14T17:46:27.254Z,101006.34
2022-11-14T17:51:37.616Z,101012.22
2022-11-14T17:56:54.629Z,101006.94
2022-11-14T18:02:04.371Z,101010.97
2022-11-14T18:07:13.323Z,101003.81
2022-11-14T18:12:24.962Z,100998.44
2022-11-14T18:17:34.959Z,100989.66
2022-11-14T18:22:45.101Z,101000.53
2022-11-14T18:27:57.452Z,100998.69
2022-11-14T18:33:07.006Z,100983.19
2022-11-14T18:38:16.096Z,100997.78
2022-11-14T18:43:30.002Z,100992.66
2022-11-14T18:48:41.401Z,100994.44
2022-11-14T18:53:52.812Z,100995.38
2022-11-14T18:59:05.569Z,100989.44
2022-11-14T19:04:19.986Z,101000.56
2022-11-14T19:09:29.115Z,100993.59
2022-11-14T19:14:41.967Z,100999.56
2022-11-14T19:19:57.753Z,101010.66
2022-11-14T19:25:09.467Z,101006.25
2022-11-14T19:30:36.063Z,100999.41
2022-11-14T19:35:45.700Z,100986.53
2022-11-14T19:40:56.392Z,100989.09
2022-11-14T19:46:10.514Z,100990.03
2022-11-14T19:51:23.006Z,100984.13
2022-11-14T19:56:32.332Z,100976.47
2022-11-14T20:01:45.883Z,100972.28
2022-11-14T20:06:54.734Z,100965.44
2022-11-14T20:12:07.555Z,100962.91
2022-11-14T20:17:20.369Z,100960.34
2022-11-14T20:22:29.306Z,100964.72
2022-11-14T20:27:40.408Z,100957.03
2022-11-14T20:32:52.312Z,100951.06
2022-11-14T20:38:04.640Z,100944.22
2022-11-14T20:43:16.868Z,100940.81
2022-11-14T20:48:29.525Z,100935.69
2022-11-14T20:53:38.734Z,100937.50
2022-11-14T20:58:48.638Z,100940.09
2022-11-14T21:04:03.358Z,100928.22
2022-11-14T21:09:16.268Z,100934.22
2022-11-14T21:14:27.123Z,100929.97
2022-11-14T21:25:04.228Z,100930.06
2022-11-14T21:30:13.908Z,100933.59
2022-11-14T21:35:26.456Z,100932.78
2022-11-14T21:40:35.924Z,100923.38
2022-11-14T21:45:46.310Z,100927.72
2022-11-14T21:50:58.391Z,100925.19
2022-11-14T21:56:11.717Z,100926.88
2022-11-14T22:01:43.219Z,100920.06
2022-11-14T22:06:54.949Z,100916.63
2022-11-14T22:12:04.352Z,100918.38
2022-11-14T22:17:16.408Z,100894.22
2022-11-14T22:22:34.622Z,100914.13
2022-11-14T22:27:43.543Z,100900.50
2022-11-14T22:32:52.548Z,100897.06
2022-11-14T22:38:05.037Z,100900.50
2022-11-14T22:43:14.628Z,100898.03
2022-11-14T22:48:23.838Z,100885.13
2022-11-14T22:53:37.676Z,100887.75
2022-11-14T22:58:47.788Z,100882.53
2022-11-14T23:03:59.237Z,100876.50
2022-11-14T23:09:11.193Z,100887.63
2022-11-14T23:14:25.335Z,100886.78
2022-11-14T23:19:34.023Z,100865.31
2022-11-14T23:24:45.817Z,100877.34
2022-11-14T23:29:55.391Z,100869.66
2022-11-14T23:35:07.963Z,100860.25
2022-11-14T23:40:21.329Z,100856.88
2022-11-14T23:45:30.939Z,100849.16
2022-11-14T23:50:40.415Z,100858.66
2022-11-14T23:55:57.502Z,100856.09
